sensor_id;sensor_type;location;lat;lon;timestamp;pressure;altitude;pressure_sealevel;temperature;humidity
68301;BME280;55146;47.468;18.806;2022-10-31T00:00:26;100720.66;;;12.36;100.00
68301;BME280;55146;47.468;18.806;2022-10-31T00:02:51;100722.91;;;12.49;100.00
68301;BME280;55146;47.468;18.806;2022-10-31T00:05:17;100725.09;;;12.47;100.00
68301;BME280;55146;47.468;18.806;2022-10-31T00:07:42;100728.16;;;12.46;100.00
68301;BME280;55146;47.468;18.806;2022-10-31T00:10:08;100725.09;;;12.47;100.00
68301;BME280;55146;47.468;18.806;2022-10-31T00:12:33;100718.19;;;12.40;100.00
68301;BME280;55146;47.468;18.806;2022-10-31T00:14:59;100717.06;;;12.41;100.00
68301;BME280;55146;47.468;18.806;2022-10-31T00:17:24;100722.31;;;12.37;100.00
68301;BME280;55146;47.468;18.806;2022-10-31T00:19:49;100712.09;;;12.38;100.00
68301;BME280;55146;47.468;18.806;2022-10-31T00:22:15;100717.63;;;12.38;100.00
68301;BME280;55146;47.468;18.806;2022-10-31T00:24:40;100716.78;;;12.37;100.00
68301;BME280;55146;47.468;18.806;2022-10-31T00:27:05;100720.91;;;12.35;100.00
68301;BME280;55146;47.468;18.806;2022-10-31T00:29:31;100720.31;;;12.23;100.00
68301;BME280;55146;47.468;18.806;2022-10-31T00:31:56;100713.44;;;12.25;100.00
68301;BME280;55146;47.468;18.806;2022-10-31T00:34:21;100702.41;;;12.20;100.00
68301;BME280;55146;47.468;18.806;2022-10-31T00:36:47;100702.66;;;12.19;100.00
68301;BME280;55146;47.468;18.806;2022-10-31T00:39:12;100705.66;;;12.07;100.00
68301;BME280;55146;47.468;18.806;2022-10-31T00:41:37;100699.84;;;12.03;100.00
68301;BME280;55146;47.468;18.806;2022-10-31T00:44:03;100700.41;;;12.10;100.00
68301;BME280;55146;47.468;18.806;2022-10-31T00:46:28;100698.81;;;12.20;100.00
68301;BME280;55146;47.468;18.806;2022-10-31T00:48:53;100693.03;;;12.21;100.00
68301;BME280;55146;47.468;18.806;2022-10-31T00:51:19;100697.72;;;12.21;100.00
68301;BME280;55146;47.468;18.806;2022-10-31T00:53:44;100693.03;;;12.26;100.00
68301;BME280;55146;47.468;18.806;2022-10-31T00:56:09;100694.97;;;12.26;100.00
68301;BME280;55146;47.468;18.806;2022-10-31T00:58:35;100690.28;;;12.26;100.00
68301;BME280;55146;47.468;18.806;2022-10-31T01:01:00;100689.44;;;12.26;100.00
68301;BME280;55146;47.468;18.806;2022-10-31T01:03:30;100696.03;;;12.20;100.00
68301;BME280;55146;47.468;18.806;2022-10-31T01:06:08;100684.19;;;12.24;100.00
68301;BME280;55146;47.468;18.806;2022-10-31T01:08:35;100689.19;;;12.27;100.00
68301;BME280;55146;47.468;18.806;2022-10-31T01:11:26;100694.69;;;12.27;100.00
68301;BME280;55146;47.468;18.806;2022-10-31T01:13:52;100692.97;;;12.16;100.00
68301;BME280;55146;47.468;18.806;2022-10-31T01:16:21;100690.53;;;12.20;100.00
68301;BME280;55146;47.468;18.806;2022-10-31T01:18:47;100688.88;;;12.24;100.00
68301;BME280;55146;47.468;18.806;2022-10-31T01:21:18;100687.25;;;12.28;100.00
68301;BME280;55146;47.468;18.806;2022-10-31T01:23:44;100688.59;;;12.20;100.00
68301;BME280;55146;47.468;18.806;2022-10-31T01:26:15;100695.22;;;12.24;100.00
68301;BME280;55146;47.468;18.806;2022-10-31T01:28:56;100687.50;;;12.21;100.00
68301;BME280;55146;47.468;18.806;2022-10-31T01:31:25;100693.56;;;12.23;100.00
68301;BME280;55146;47.468;18.806;2022-10-31T01:33:51;100685.53;;;12.16;100.00
68301;BME280;55146;47.468;18.806;2022-10-31T01:36:20;100685.28;;;12.18;100.00
68301;BME280;55146;47.468;18.806;2022-10-31T01:38:46;100683.31;;;12.08;100.00
68301;BME280;55146;47.468;18.806;2022-10-31T01:41:15;100682.50;;;12.13;100.00
68301;BME280;55146;47.468;18.806;2022-10-31T01:43:43;100684.16;;;12.14;100.00
68301;BME280;55146;47.468;18.806;2022-10-31T01:46:08;100689.66;;;12.09;100.00
68301;BME280;55146;47.468;18.806;2022-10-31T01:48:34;100686.50;;;11.85;100.00
68301;BME280;55146;47.468;18.806;2022-10-31T01:50:59;100685.41;;;11.86;100.00
68301;BME280;55146;47.468;18.806;2022-10-31T01:53:25;100689.56;;;11.89;100.00
68301;BME280;55146;47.468;18.806;2022-10-31T01:55:50;100690.44;;;11.99;100.00
68301;BME280;55146;47.468;18.806;2022-10-31T01:58:20;100694.03;;;12.05;100.00
68301;BME280;55146;47.468;18.806;2022-10-31T02:00:51;100680.78;;;11.97;100.00
68301;BME280;55146;47.468;18.806;2022-10-31T02:03:20;100681.09;;;12.05;100.00
68301;BME280;55146;47.468;18.806;2022-10-31T02:05:46;100675.00;;;11.98;100.00
68301;BME280;55146;47.468;18.806;2022-10-31T02:08:31;100674.19;;;12.03;100.00
68301;BME280;55146;47.468;18.806;2022-10-31T02:10:59;100678.59;;;11.99;100.00
68301;BME280;55146;47.468;18.806;2022-10-31T02:13:25;100671.16;;;12.04;100.00
68301;BME280;55146;47.468;18.806;2022-10-31T02:15:53;100665.62;;;12.04;100.00
68301;BME280;55146;47.468;18.806;2022-10-31T02:18:20;100669.25;;;12.10;100.00
68301;BME280;55146;47.468;18.806;2022-10-31T02:24:07;100667.84;;;12.02;100.00
68301;BME280;55146;47.468;18.806;2022-10-31T02:27:01;100670.31;;;12.04;100.00
68301;BME280;55146;47.468;18.806;2022-10-31T02:29:52;100672.28;;;12.03;100.00
68301;BME280;55146;47.468;18.806;2022-10-31T02:32:28;100681.66;;;12.02;100.00
68301;BME280;55146;47.468;18.806;2022-10-31T02:40:36;100671.41;;;11.98;100.00
68301;BME280;55146;47.468;18.806;2022-10-31T02:43:06;100677.44;;;11.90;100.00
68301;BME280;55146;47.468;18.806;2022-10-31T02:45:40;100678.56;;;11.94;100.00
68301;BME280;55146;47.468;18.806;2022-10-31T02:48:12;100675.44;;;11.75;100.00
68301;BME280;55146;47.468;18.806;2022-10-31T02:50:42;100677.59;;;11.73;100.00
68301;BME280;55146;47.468;18.806;2022-10-31T02:53:14;100673.19;;;11.72;100.00
68301;BME280;55146;47.468;18.806;2022-10-31T02:55:47;100680.13;;;11.74;100.00
68301;BME280;55146;47.468;18.806;2022-10-31T02:58:15;100679.84;;;11.76;100.00
68301;BME280;55146;47.468;18.806;2022-10-31T03:03:36;100677.97;;;11.82;100.00
68301;BME280;55146;47.468;18.806;2022-10-31T03:06:32;100682.38;;;11.83;100.00
68301;BME280;55146;47.468;18.806;2022-10-31T03:09:25;100679.38;;;11.89;100.00
68301;BME280;55146;47.468;18.806;2022-10-31T03:15:19;100677.72;;;11.88;100.00
68301;BME280;55146;47.468;18.806;2022-10-31T03:21:14;100689.00;;;11.87;100.00
68301;BME280;55146;47.468;18.806;2022-10-31T03:23:44;100691.75;;;11.87;100.00
68301;BME280;55146;47.468;18.806;2022-10-31T03:26:11;100692.56;;;11.82;100.00
68301;BME280;55146;47.468;18.806;2022-10-31T03:28:49;100695.78;;;11.69;100.00
68301;BME280;55146;47.468;18.806;2022-10-31T03:31:18;100691.47;;;11.78;100.00
68301;BME280;55146;47.468;18.806;2022-10-31T03:33:45;100686.16;;;11.71;100.00
68301;BME280;55146;47.468;18.806;2022-10-31T03:36:14;100696.09;;;11.72;100.00
68301;BME280;55146;47.468;18.806;2022-10-31T03:38:41;100692.81;;;11.75;100.00
68301;BME280;55146;47.468;18.806;2022-10-31T03:41:11;100695.59;;;11.81;100.00
68301;BME280;55146;47.468;18.806;2022-10-31T03:43:42;100696.88;;;11.73;100.00
68301;BME280;55146;47.468;18.806;2022-10-31T03:46:11;100693.28;;;11.67;100.00
68301;BME280;55146;47.468;18.806;2022-10-31T03:48:36;100691.66;;;11.66;100.00
68301;BME280;55146;47.468;18.806;2022-10-31T03:51:29;100692.97;;;11.59;100.00
68301;BME280;55146;47.468;18.806;2022-10-31T03:54:30;100696.19;;;11.46;100.00
68301;BME280;55146;47.468;18.806;2022-10-31T03:57:23;100695.97;;;11.52;100.00
68301;BME280;55146;47.468;18.806;2022-10-31T04:00:03;100703.34;;;11.42;100.00
68301;BME280;55146;47.468;18.806;2022-10-31T04:02:32;100705.31;;;11.51;100.00
68301;BME280;55146;47.468;18.806;2022-10-31T04:04:59;100702.00;;;11.54;100.00
68301;BME280;55146;47.468;18.806;2022-10-31T04:07:27;100705.09;;;11.63;100.00
68301;BME280;55146;47.468;18.806;2022-10-31T04:09:53;100706.44;;;11.55;100.00
68301;BME280;55146;47.468;18.806;2022-10-31T04:12:22;100710.59;;;11.58;100.00
68301;BME280;55146;47.468;18.806;2022-10-31T04:14:49;100706.50;;;11.65;100.00
68301;BME280;55146;47.468;18.806;2022-10-31T04:17:17;100705.91;;;11.58;100.00
68301;BME280;55146;47.468;18.806;2022-10-31T04:19:44;100704.00;;;11.64;100.00
68301;BME280;55146;47.468;18.806;2022-10-31T04:22:09;100712.56;;;11.67;99.69
68301;BME280;55146;47.468;18.806;2022-10-31T04:24:37;100710.59;;;11.58;99.71
68301;BME280;55146;47.468;18.806;2022-10-31T04:27:03;100720.41;;;11.44;100.00
68301;BME280;55146;47.468;18.806;2022-10-31T04:29:29;100714.91;;;11.44;100.00
68301;BME280;55146;47.468;18.806;2022-10-31T04:31:54;100716.59;;;11.50;100.00
68301;BME280;55146;47.468;18.806;2022-10-31T04:34:19;100714.34;;;11.42;100.00
68301;BME280;55146;47.468;18.806;2022-10-31T04:36:44;100715.75;;;11.49;100.00
68301;BME280;55146;47.468;18.806;2022-10-31T04:39:10;100721.03;;;11.56;100.00
68301;BME280;55146;47.468;18.806;2022-10-31T04:41:35;100716.91;;;11.53;100.00
68301;BME280;55146;47.468;18.806;2022-10-31T04:44:00;100728.19;;;11.52;100.00
68301;BME280;55146;47.468;18.806;2022-10-31T04:46:26;100730.94;;;11.52;100.00
68301;BME280;55146;47.468;18.806;2022-10-31T04:48:51;100731.19;;;11.50;100.00
68301;BME280;55146;47.468;18.806;2022-10-31T04:51:16;100737.28;;;11.52;100.00
68301;BME280;55146;47.468;18.806;2022-10-31T04:53:41;100729.00;;;11.47;100.00
68301;BME280;55146;47.468;18.806;2022-10-31T04:56:07;100733.94;;;11.50;100.00
68301;BME280;55146;47.468;18.806;2022-10-31T04:58:32;100739.47;;;11.50;100.00
68301;BME280;55146;47.468;18.806;2022-10-31T05:00:57;100737.31;;;11.57;100.00
68301;BME280;55146;47.468;18.806;2022-10-31T05:03:23;100740.91;;;11.58;100.00
68301;BME280;55146;47.468;18.806;2022-10-31T05:05:49;100740.66;;;11.59;100.00
68301;BME280;55146;47.468;18.806;2022-10-31T05:08:15;100746.69;;;11.61;100.00
68301;BME280;55146;47.468;18.806;2022-10-31T05:10:40;100735.69;;;11.61;100.00
68301;BME280;55146;47.468;18.806;2022-10-31T05:13:06;100735.84;;;11.45;100.00
68301;BME280;55146;47.468;18.806;2022-10-31T05:15:31;100729.03;;;11.57;100.00
68301;BME280;55146;47.468;18.806;2022-10-31T05:17:57;100722.69;;;11.52;100.00
68301;BME280;55146;47.468;18.806;2022-10-31T05:20:25;100722.91;;;11.45;100.00
68301;BME280;55146;47.468;18.806;2022-10-31T05:22:52;100730.31;;;11.40;100.00
68301;BME280;55146;47.468;18.806;2022-10-31T05:25:19;100724.81;;;11.45;100.00
68301;BME280;55146;47.468;18.806;2022-10-31T05:27:47;100725.72;;;11.55;100.00
68301;BME280;55146;47.468;18.806;2022-10-31T05:30:15;100738.13;;;11.53;100.00
68301;BME280;55146;47.468;18.806;2022-10-31T05:32:45;100726.53;;;11.51;100.00
68301;BME280;55146;47.468;18.806;2022-10-31T05:35:25;100727.97;;;11.58;100.00
68301;BME280;55146;47.468;18.806;2022-10-31T05:37:51;100723.78;;;11.56;100.00
68301;BME280;55146;47.468;18.806;2022-10-31T05:40:18;100722.44;;;11.58;100.00
68301;BME280;55146;47.468;18.806;2022-10-31T05:42:44;100727.31;;;11.46;100.00
68301;BME280;55146;47.468;18.806;2022-10-31T05:45:12;100737.44;;;11.35;100.00
68301;BME280;55146;47.468;18.806;2022-10-31T05:47:38;100732.84;;;11.46;100.00
68301;BME280;55146;47.468;18.806;2022-10-31T05:50:04;100740.78;;;11.43;100.00
68301;BME280;55146;47.468;18.806;2022-10-31T05:52:30;100744.72;;;11.52;100.00
68301;BME280;55146;47.468;18.806;2022-10-31T05:54:55;100741.19;;;11.61;100.00
68301;BME280;55146;47.468;18.806;2022-10-31T05:57:20;100743.16;;;11.66;100.00
68301;BME280;55146;47.468;18.806;2022-10-31T05:59:46;100748.41;;;11.67;100.00
68301;BME280;55146;47.468;18.806;2022-10-31T06:02:11;100739.88;;;11.69;100.00
68301;BME280;55146;47.468;18.806;2022-10-31T06:04:36;100744.28;;;11.70;100.00
68301;BME280;55146;47.468;18.806;2022-10-31T06:07:02;100743.47;;;11.69;100.00
68301;BME280;55146;47.468;18.806;2022-10-31T06:09:27;100741.34;;;11.77;100.00
68301;BME280;55146;47.468;18.806;2022-10-31T06:11:52;100747.56;;;11.67;100.00
68301;BME280;55146;47.468;18.806;2022-10-31T06:14:20;100750.88;;;11.69;100.00
68301;BME280;55146;47.468;18.806;2022-10-31T06:16:47;100748.91;;;11.59;100.00
68301;BME280;55146;47.468;18.806;2022-10-31T06:19:12;100764.91;;;11.62;100.00
68301;BME280;55146;47.468;18.806;2022-10-31T06:21:38;100763.56;;;11.65;100.00
68301;BME280;55146;47.468;18.806;2022-10-31T06:24:03;100754.97;;;11.61;100.00
68301;BME280;55146;47.468;18.806;2022-10-31T06:26:29;100749.19;;;11.63;100.00
68301;BME280;55146;47.468;18.806;2022-10-31T06:28:54;100755.19;;;11.55;100.00
68301;BME280;55146;47.468;18.806;2022-10-31T06:31:19;100749.78;;;11.65;100.00
68301;BME280;55146;47.468;18.806;2022-10-31T06:33:45;100749.19;;;11.63;100.00
68301;BME280;55146;47.468;18.806;2022-10-31T06:36:11;100754.41;;;11.59;100.00
68301;BME280;55146;47.468;18.806;2022-10-31T06:38:36;100754.44;;;11.64;100.00
68301;BME280;55146;47.468;18.806;2022-10-31T06:41:03;100757.22;;;11.64;100.00
68301;BME280;55146;47.468;18.806;2022-10-31T06:43:29;100754.31;;;11.49;100.00
68301;BME280;55146;47.468;18.806;2022-10-31T06:45:54;100758.75;;;11.50;100.00
68301;BME280;55146;47.468;18.806;2022-10-31T06:48:20;100762.75;;;11.69;100.00
68301;BME280;55146;47.468;18.806;2022-10-31T06:50:45;100765.91;;;11.46;100.00
68301;BME280;55146;47.468;18.806;2022-10-31T06:53:10;100774.22;;;11.56;100.00
68301;BME280;55146;47.468;18.806;2022-10-31T06:55:36;100772.34;;;11.62;100.00
68301;BME280;55146;47.468;18.806;2022-10-31T06:58:01;100788.63;;;11.63;100.00
68301;BME280;55146;47.468;18.806;2022-10-31T07:00:28;100781.22;;;11.69;100.00
68301;BME280;55146;47.468;18.806;2022-10-31T07:05:24;100779.84;;;11.71;100.00
68301;BME280;55146;47.468;18.806;2022-10-31T07:08:04;100787.53;;;11.64;100.00
68301;BME280;55146;47.468;18.806;2022-10-31T07:10:32;100783.34;;;11.62;100.00
68301;BME280;55146;47.468;18.806;2022-10-31T07:13:00;100795.22;;;11.62;100.00
68301;BME280;55146;47.468;18.806;2022-10-31T07:15:28;100793.28;;;11.63;100.00
68301;BME280;55146;47.468;18.806;2022-10-31T07:17:53;100793.97;;;11.75;100.00
68301;BME280;55146;47.468;18.806;2022-10-31T07:20:19;100801.28;;;11.59;100.00
68301;BME280;55146;47.468;18.806;2022-10-31T07:22:44;100798.81;;;11.63;100.00
68301;BME280;55146;47.468;18.806;2022-10-31T07:25:10;100801.34;;;11.69;100.00
68301;BME280;55146;47.468;18.806;2022-10-31T07:27:39;100802.56;;;11.84;100.00
68301;BME280;55146;47.468;18.806;2022-10-31T07:30:06;100803.09;;;11.81;100.00
68301;BME280;55146;47.468;18.806;2022-10-31T07:32:42;100805.66;;;11.92;100.00
68301;BME280;55146;47.468;18.806;2022-10-31T07:35:09;100800.72;;;11.99;100.00
68301;BME280;55146;47.468;18.806;2022-10-31T07:37:35;100805.41;;;11.99;100.00
68301;BME280;55146;47.468;18.806;2022-10-31T07:40:02;100802.03;;;11.87;100.00
68301;BME280;55146;47.468;18.806;2022-10-31T07:42:27;100803.34;;;11.79;100.00
68301;BME280;55146;47.468;18.806;2022-10-31T07:44:53;100802.91;;;11.97;100.00
68301;BME280;55146;47.468;18.806;2022-10-31T07:47:18;100803.97;;;11.91;100.00
68301;BME280;55146;47.468;18.806;2022-10-31T07:49:43;100807.31;;;11.93;100.00
68301;BME280;55146;47.468;18.806;2022-10-31T07:52:09;100803.19;;;11.91;100.00
68301;BME280;55146;47.468;18.806;2022-10-31T07:54:34;100807.06;;;11.95;100.00
68301;BME280;55146;47.468;18.806;2022-10-31T07:56:59;100810.34;;;11.92;100.00
68301;BME280;55146;47.468;18.806;2022-10-31T07:59:25;100803.44;;;11.89;100.00
68301;BME280;55146;47.468;18.806;2022-10-31T08:01:51;100802.63;;;11.94;100.00
68301;BME280;55146;47.468;18.806;2022-10-31T08:04:16;100803.34;;;11.79;100.00
68301;BME280;55146;47.468;18.806;2022-10-31T08:06:41;100799.53;;;11.85;100.00
68301;BME280;55146;47.468;18.806;2022-10-31T08:09:06;100803.19;;;11.91;100.00
68301;BME280;55146;47.468;18.806;2022-10-31T08:11:32;100794.38;;;11.94;100.00
68301;BME280;55146;47.468;18.806;2022-10-31T08:13:57;100802.16;;;12.02;100.00
68301;BME280;55146;47.468;18.806;2022-10-31T08:16:22;100804.91;;;12.02;100.00
68301;BME280;55146;47.468;18.806;2022-10-31T08:18:47;100805.22;;;12.10;100.00
68301;BME280;55146;47.468;18.806;2022-10-31T08:21:13;100803.22;;;11.96;100.00
68301;BME280;55146;47.468;18.806;2022-10-31T08:23:38;100804.91;;;12.02;100.00
68301;BME280;55146;47.468;18.806;2022-10-31T08:26:03;100800.44;;;11.96;100.00
68301;BME280;55146;47.468;18.806;2022-10-31T08:28:31;100814.25;;;12.01;100.00
68301;BME280;55146;47.468;18.806;2022-10-31T08:30:57;100802.75;;;12.09;100.00
68301;BME280;55146;47.468;18.806;2022-10-31T08:33:22;100800.75;;;12.04;100.00
68301;BME280;55146;47.468;18.806;2022-10-31T08:35:47;100809.03;;;12.04;100.00
68301;BME280;55146;47.468;18.806;2022-10-31T08:38:13;100809.72;;;12.22;100.00
68301;BME280;55146;47.468;18.806;2022-10-31T08:40:39;100812.38;;;12.06;100.00
68301;BME280;55146;47.468;18.806;2022-10-31T08:43:15;100809.13;;;12.14;100.00
68301;BME280;55146;47.468;18.806;2022-10-31T08:45:41;100803.31;;;12.16;100.00
68301;BME280;55146;47.468;18.806;2022-10-31T08:48:15;100804.44;;;12.20;100.00
68301;BME280;55146;47.468;18.806;2022-10-31T08:50:42;100798.69;;;12.22;100.00
68301;BME280;55146;47.468;18.806;2022-10-31T08:53:13;100799.53;;;12.32;99.14
68301;BME280;55146;47.468;18.806;2022-10-31T08:55:39;100801.16;;;12.28;100.00
68301;BME280;55146;47.468;18.806;2022-10-31T08:58:07;100799.00;;;12.35;99.40
68301;BME280;55146;47.468;18.806;2022-10-31T09:00:34;100807.84;;;12.42;99.98
68301;BME280;55146;47.468;18.806;2022-10-31T09:03:04;100814.22;;;12.48;99.55
68301;BME280;55146;47.468;18.806;2022-10-31T09:05:29;100808.69;;;12.43;99.20
68301;BME280;55146;47.468;18.806;2022-10-31T09:07:56;100815.63;;;12.45;99.55
68301;BME280;55146;47.468;18.806;2022-10-31T09:10:23;100808.44;;;12.44;99.12
68301;BME280;55146;47.468;18.806;2022-10-31T09:13:00;100817.22;;;12.36;99.31
68301;BME280;55146;47.468;18.806;2022-10-31T09:15:27;100816.41;;;12.41;99.63
68301;BME280;55146;47.468;18.806;2022-10-31T09:17:53;100823.87;;;12.40;99.04
68301;BME280;55146;47.468;18.806;2022-10-31T09:20:19;100813.09;;;12.34;99.48
68301;BME280;55146;47.468;18.806;2022-10-31T09:22:45;100819.13;;;12.36;100.00
68301;BME280;55146;47.468;18.806;2022-10-31T09:25:10;100819.69;;;12.33;100.00
68301;BME280;55146;47.468;18.806;2022-10-31T09:27:36;100819.72;;;12.38;99.78
68301;BME280;55146;47.468;18.806;2022-10-31T09:30:02;100819.97;;;12.36;100.00
68301;BME280;55146;47.468;18.806;2022-10-31T09:32:28;100824.13;;;12.39;100.00
68301;BME280;55146;47.468;18.806;2022-10-31T09:34:53;100816.69;;;12.39;100.00
68301;BME280;55146;47.468;18.806;2022-10-31T09:37:18;100821.91;;;12.41;100.00
68301;BME280;55146;47.468;18.806;2022-10-31T09:39:43;100816.72;;;12.49;99.67
68301;BME280;55146;47.468;18.806;2022-10-31T09:42:28;100821.41;;;12.49;99.47
68301;BME280;55146;47.468;18.806;2022-10-31T09:50:32;100817.56;;;12.50;99.24
68301;BME280;55146;47.468;18.806;2022-10-31T09:53:24;100819.75;;;12.53;99.03
68301;BME280;55146;47.468;18.806;2022-10-31T09:55:50;100821.72;;;12.52;99.14
68301;BME280;55146;47.468;18.806;2022-10-31T09:58:27;100819.47;;;12.44;100.00
68301;BME280;55146;47.468;18.806;2022-10-31T10:00:56;100820.66;;;12.64;98.99
68301;BME280;55146;47.468;18.806;2022-10-31T10:06:06;100812.87;;;12.50;99.58
68301;BME280;55146;47.468;18.806;2022-10-31T10:08:37;100816.22;;;12.63;98.79
68301;BME280;55146;47.468;18.806;2022-10-31T10:11:08;100818.62;;;12.44;99.69
68301;BME280;55146;47.468;18.806;2022-10-31T10:27:42;100801.59;;;12.62;100.00
68301;BME280;55146;47.468;18.806;2022-10-31T10:30:20;100807.41;;;12.66;100.00
68301;BME280;55146;47.468;18.806;2022-10-31T10:32:52;100806.31;;;12.72;99.93
68301;BME280;55146;47.468;18.806;2022-10-31T10:37:52;100802.94;;;12.54;99.98
68301;BME280;55146;47.468;18.806;2022-10-31T10:40:23;100807.03;;;12.47;99.93
68301;BME280;55146;47.468;18.806;2022-10-31T10:51:59;100801.88;;;12.66;98.95
68301;BME280;55146;47.468;18.806;2022-10-31T10:59:40;100791.72;;;12.81;99.30
68301;BME280;55146;47.468;18.806;2022-10-31T11:02:17;100796.16;;;12.87;98.29
68301;BME280;55146;47.468;18.806;2022-10-31T11:04:44;100791.47;;;12.83;98.30
68301;BME280;55146;47.468;18.806;2022-10-31T11:07:10;100797.50;;;12.80;98.07
68301;BME280;55146;47.468;18.806;2022-10-31T11:09:37;100794.75;;;12.80;98.48
68301;BME280;55146;47.468;18.806;2022-10-31T11:12:17;100787.31;;;12.80;98.83
68301;BME280;55146;47.468;18.806;2022-10-31T11:14:47;100790.63;;;12.82;98.91
68301;BME280;55146;47.468;18.806;2022-10-31T11:17:29;100779.03;;;12.80;99.62
68301;BME280;55146;47.468;18.806;2022-10-31T11:22:46;100781.78;;;12.85;99.22
68301;BME280;55146;47.468;18.806;2022-10-31T11:25:25;100787.59;;;12.89;99.04
68301;BME280;55146;47.468;18.806;2022-10-31T11:28:07;100780.09;;;12.74;100.00
68301;BME280;55146;47.468;18.806;2022-10-31T11:30:52;100786.69;;;12.63;100.00
68301;BME280;55146;47.468;18.806;2022-10-31T11:33:36;100780.09;;;12.69;99.55
68301;BME280;55146;47.468;18.806;2022-10-31T11:36:15;100780.66;;;12.71;98.78
68301;BME280;55146;47.468;18.806;2022-10-31T11:38:42;100777.06;;;12.71;98.54
68301;BME280;55146;47.468;18.806;2022-10-31T11:41:13;100769.88;;;12.65;98.95
68301;BME280;55146;47.468;18.806;2022-10-31T11:43:46;100775.44;;;12.80;98.59
68301;BME280;55146;47.468;18.806;2022-10-31T11:46:19;100772.91;;;12.68;97.50
68301;BME280;55146;47.468;18.806;2022-10-31T11:48:52;100770.13;;;12.63;98.48
68301;BME280;55146;47.468;18.806;2022-10-31T11:51:32;100769.84;;;12.60;99.50
68301;BME280;55146;47.468;18.806;2022-10-31T11:53:59;100770.72;;;12.70;98.90
68301;BME280;55146;47.468;18.806;2022-10-31T11:56:25;100777.91;;;12.76;98.70
68301;BME280;55146;47.468;18.806;2022-10-31T11:59:12;100765.44;;;12.64;98.68
68301;BME280;55146;47.468;18.806;2022-10-31T12:01:40;100773.19;;;12.72;98.36
68301;BME280;55146;47.468;18.806;2022-10-31T12:04:06;100770.72;;;12.70;98.59
68301;BME280;55146;47.468;18.806;2022-10-31T12:06:35;100772.97;;;12.83;97.90
68301;BME280;55146;47.468;18.806;2022-10-31T12:09:01;100769.00;;;12.59;98.91
68301;BME280;55146;47.468;18.806;2022-10-31T12:17:18;100772.37;;;12.71;99.05
68301;BME280;55146;47.468;18.806;2022-10-31T12:20:16;100768.25;;;12.79;98.08
68301;BME280;55146;47.468;18.806;2022-10-31T12:23:08;100762.37;;;12.60;99.28
68301;BME280;55146;47.468;18.806;2022-10-31T12:25:45;100763.47;;;12.59;100.00
68301;BME280;55146;47.468;18.806;2022-10-31T12:28:18;100769.88;;;12.70;98.80
68301;BME280;55146;47.468;18.806;2022-10-31T12:31:08;100769.91;;;12.75;98.42
68301;BME280;55146;47.468;18.806;2022-10-31T12:34:06;100761.34;;;12.76;98.25
68301;BME280;55146;47.468;18.806;2022-10-31T12:39:34;100763.81;;;12.78;98.29
68301;BME280;55146;47.468;18.806;2022-10-31T12:42:10;100761.03;;;12.73;98.51
68301;BME280;55146;47.468;18.806;2022-10-31T12:44:57;100763.28;;;12.76;98.21
68301;BME280;55146;47.468;18.806;2022-10-31T12:50:19;100762.19;;;12.82;98.29
68301;BME280;55146;47.468;18.806;2022-10-31T12:55:46;100755.31;;;12.89;98.13
68301;BME280;55146;47.468;18.806;2022-10-31T12:58:30;100754.72;;;12.82;97.09
68301;BME280;55146;47.468;18.806;2022-10-31T13:01:07;100759.69;;;12.80;96.42
68301;BME280;55146;47.468;18.806;2022-10-31T13:03:42;100756.09;;;12.75;96.85
68301;BME280;55146;47.468;18.806;2022-10-31T13:06:20;100749.16;;;12.62;97.96
68301;BME280;55146;47.468;18.806;2022-10-31T13:09:06;100751.34;;;12.55;97.63
68301;BME280;55146;47.468;18.806;2022-10-31T13:11:37;100745.53;;;12.51;98.25
68301;BME280;55146;47.468;18.806;2022-10-31T13:14:09;100755.44;;;12.47;99.06
68301;BME280;55146;47.468;18.806;2022-10-31T13:16:42;100748.06;;;12.58;98.53
68301;BME280;55146;47.468;18.806;2022-10-31T13:19:28;100752.75;;;12.63;98.71
68301;BME280;55146;47.468;18.806;2022-10-31T13:27:30;100752.19;;;12.66;97.56
68301;BME280;55146;47.468;18.806;2022-10-31T13:30:12;100754.94;;;12.66;97.79
68301;BME280;55146;47.468;18.806;2022-10-31T13:33:05;100753.31;;;12.70;97.73
68301;BME280;55146;47.468;18.806;2022-10-31T13:35:41;100748.06;;;12.63;97.24
68301;BME280;55146;47.468;18.806;2022-10-31T13:38:43;100747.78;;;12.65;97.90
68301;BME280;55146;47.468;18.806;2022-10-31T13:44:21;100748.56;;;12.55;98.48
68301;BME280;55146;47.468;18.806;2022-10-31T13:46:49;100737.53;;;12.60;98.01
68301;BME280;55146;47.468;18.806;2022-10-31T13:54:41;100737.88;;;12.74;96.62
68301;BME280;55146;47.468;18.806;2022-10-31T13:57:15;100742.28;;;12.65;97.16
68301;BME280;55146;47.468;18.806;2022-10-31T13:59:47;100751.34;;;12.60;97.32
68301;BME280;55146;47.468;18.806;2022-10-31T14:02:23;100751.34;;;12.60;97.01
68301;BME280;55146;47.468;18.806;2022-10-31T14:04:54;100741.94;;;12.51;97.96
68301;BME280;55146;47.468;18.806;2022-10-31T14:07:22;100739.47;;;12.49;97.03
68301;BME280;55146;47.468;18.806;2022-10-31T14:10:04;100737.78;;;12.38;98.20
68301;BME280;55146;47.468;18.806;2022-10-31T14:15:20;100733.94;;;12.54;97.08
68301;BME280;55146;47.468;18.806;2022-10-31T14:17:55;100738.59;;;12.34;98.60
68301;BME280;55146;47.468;18.806;2022-10-31T14:22:49;100739.72;;;12.53;97.69